CheckWX is a tool to help pilots better visualize weather data.  It is not intended as a substitute for an official pre-flight weather briefing.

16:43:18 UTC

EDHI METAR
Hamburg-Finkenwerder Airport
Hamburg, Germany
Current

23 mins ago

EDHI 071620Z AUTO 25010KT 9999 // FEW016/// SCT043/// BKN050/// 08/06 Q1008
Observed
Dec-7 @ 16:20 UTC
Wind
  • 250° at 10 KTS
Visibility
10,000+ meters
Flight Rules
VFR
Cloud Levels
  • Few at 1,600' AGL
  • Scattered at 4,300' AGL
  • Broken at 5,000' AGL
Temperature
C / 46°F
Dewpoint
C / 43°F
Humidity
87%
Altimeter
29.76" Hg
Pressure
1007.92 hPa
Previous

53 mins ago

EDHI 071550Z AUTO 25013KT 8000 // FEW011/// BKN017/// OVC032/// 08/07 Q1008
Observed
Dec-7 @ 15:50 UTC
Wind
  • 250° at 13 KTS
Visibility
8,000 meters
Flight Rules
MVFR
Cloud Levels
  • Few at 1,100' AGL
  • Broken at 1,700' AGL
  • Overcast at 3,200' AGL
Temperature
C / 46°F
Dewpoint
C / 45°F
Humidity
93%
Altimeter
29.76" Hg
Pressure
1007.92 hPa
Previous

1 hour ago

EDHI 071520Z AUTO 27010KT 9999 // SCT014/// BKN035/// OVC061/// 08/07 Q1008
Observed
Dec-7 @ 15:20 UTC
Wind
  • 270° at 10 KTS
Visibility
10,000+ meters
Flight Rules
VFR
Cloud Levels
  • Scattered at 1,400' AGL
  • Broken at 3,500' AGL
  • Overcast at 6,100' AGL
Temperature
C / 46°F
Dewpoint
C / 45°F
Humidity
93%
Altimeter
29.76" Hg
Pressure
1007.92 hPa